<?xml version="1.0" encoding="UTF-8" standalone="no" ?>
<gpx xmlns="http://www.topografix.com/GPX/1/1" xmlns:xsi="http://www.w3.org/2001/XMLSchema-instance" xsi:schemaLocation="http://www.topografix.com/GPX/1/1 http://www.topografix.com/GPX/1/1/gpx.xsd" version="1.1" creator="VisuGPX - https://www.visugpx.com">
  <metadata>
    <name>Jour 3</name>
  </metadata>
  <trk>
    <name><![CDATA[Jour 3_2]]></name>
    <trkseg>
      <trkpt lat="42.28985" lon="0.61513">
        <ele>1131.48</ele>
        <time>2021-08-01T16:31:59Z</time>
      </trkpt>
      <trkpt lat="42.28992" lon="0.61508">
        <ele>1132.32</ele>
        <time>2021-08-01T16:32:01Z</time>
      </trkpt>
      <trkpt lat="42.29044" lon="0.61491">
        <ele>1135.79</ele>
        <time>2021-08-01T16:32:10Z</time>
      </trkpt>
      <trkpt lat="42.29059" lon="0.61486">
        <ele>1136.45</ele>
        <time>2021-08-01T16:32:12Z</time>
      </trkpt>
      <trkpt lat="42.29141" lon="0.61411">
        <ele>1139.21</ele>
        <time>2021-08-01T16:32:23Z</time>
      </trkpt>
      <trkpt lat="42.29157" lon="0.61392">
        <ele>1139.31</ele>
        <time>2021-08-01T16:32:25Z</time>
      </trkpt>
      <trkpt lat="42.29192" lon="0.61365">
        <ele>1138.77</ele>
        <time>2021-08-01T16:32:29Z</time>
      </trkpt>
      <trkpt lat="42.29228" lon="0.61354">
        <ele>1137.65</ele>
        <time>2021-08-01T16:32:33Z</time>
      </trkpt>
      <trkpt lat="42.29295" lon="0.61345">
        <ele>1135.01</ele>
        <time>2021-08-01T16:32:41Z</time>
      </trkpt>
      <trkpt lat="42.29324" lon="0.61321">
        <ele>1134.39</ele>
        <time>2021-08-01T16:32:45Z</time>
      </trkpt>
      <trkpt lat="42.29354" lon="0.61309">
        <ele>1134.54</ele>
        <time>2021-08-01T16:32:49Z</time>
      </trkpt>
      <trkpt lat="42.29375" lon="0.61308">
        <ele>1135.61</ele>
        <time>2021-08-01T16:32:52Z</time>
      </trkpt>
      <trkpt lat="42.29406" lon="0.61294">
        <ele>1138.83</ele>
        <time>2021-08-01T16:32:58Z</time>
      </trkpt>
      <trkpt lat="42.29427" lon="0.613">
        <ele>1140.74</ele>
        <time>2021-08-01T16:33:03Z</time>
      </trkpt>
      <trkpt lat="42.29449" lon="0.61318">
        <ele>1141.69</ele>
        <time>2021-08-01T16:33:07Z</time>
      </trkpt>
      <trkpt lat="42.29482" lon="0.61321">
        <ele>1143.26</ele>
        <time>2021-08-01T16:33:15Z</time>
      </trkpt>
      <trkpt lat="42.29528" lon="0.61341">
        <ele>1143.12</ele>
        <time>2021-08-01T16:33:28Z</time>
      </trkpt>
      <trkpt lat="42.29558" lon="0.61365">
        <ele>1143.13</ele>
        <time>2021-08-01T16:33:33Z</time>
      </trkpt>
      <trkpt lat="42.29584" lon="0.61376">
        <ele>1143.28</ele>
        <time>2021-08-01T16:33:37Z</time>
      </trkpt>
      <trkpt lat="42.29606" lon="0.61376">
        <ele>1145.37</ele>
        <time>2021-08-01T16:33:46Z</time>
      </trkpt>
      <trkpt lat="42.29627" lon="0.6138">
        <ele>1146.7</ele>
        <time>2021-08-01T16:33:55Z</time>
      </trkpt>
      <trkpt lat="42.29706" lon="0.61361">
        <ele>1147.81</ele>
        <time>2021-08-01T16:34:05Z</time>
      </trkpt>
      <trkpt lat="42.29792" lon="0.61326">
        <ele>1149.49</ele>
        <time>2021-08-01T16:34:14Z</time>
      </trkpt>
      <trkpt lat="42.29834" lon="0.61319">
        <ele>1149.93</ele>
        <time>2021-08-01T16:34:18Z</time>
      </trkpt>
      <trkpt lat="42.29906" lon="0.61288">
        <ele>1151.02</ele>
        <time>2021-08-01T16:34:25Z</time>
      </trkpt>
      <trkpt lat="42.29965" lon="0.61252">
        <ele>1153.67</ele>
        <time>2021-08-01T16:34:30Z</time>
      </trkpt>
      <trkpt lat="42.30027" lon="0.61195">
        <ele>1158.04</ele>
        <time>2021-08-01T16:34:36Z</time>
      </trkpt>
      <trkpt lat="42.30096" lon="0.61153">
        <ele>1161.39</ele>
        <time>2021-08-01T16:34:42Z</time>
      </trkpt>
      <trkpt lat="42.30164" lon="0.61126">
        <ele>1163.08</ele>
        <time>2021-08-01T16:34:47Z</time>
      </trkpt>
      <trkpt lat="42.30238" lon="0.61073">
        <ele>1164.76</ele>
        <time>2021-08-01T16:34:53Z</time>
      </trkpt>
      <trkpt lat="42.3027" lon="0.61044">
        <ele>1166.07</ele>
        <time>2021-08-01T16:34:56Z</time>
      </trkpt>
      <trkpt lat="42.3029" lon="0.61024">
        <ele>1166.45</ele>
        <time>2021-08-01T16:34:58Z</time>
      </trkpt>
      <trkpt lat="42.30318" lon="0.60977">
        <ele>1169.94</ele>
        <time>2021-08-01T16:35:05Z</time>
      </trkpt>
      <trkpt lat="42.30328" lon="0.60955">
        <ele>1172.55</ele>
        <time>2021-08-01T16:35:10Z</time>
      </trkpt>
      <trkpt lat="42.30341" lon="0.60943">
        <ele>1174.44</ele>
        <time>2021-08-01T16:35:14Z</time>
      </trkpt>
      <trkpt lat="42.30353" lon="0.60924">
        <ele>1176.46</ele>
        <time>2021-08-01T16:35:18Z</time>
      </trkpt>
      <trkpt lat="42.30378" lon="0.60892">
        <ele>1180.49</ele>
        <time>2021-08-01T16:35:25Z</time>
      </trkpt>
      <trkpt lat="42.30401" lon="0.60884">
        <ele>1182.68</ele>
        <time>2021-08-01T16:35:29Z</time>
      </trkpt>
      <trkpt lat="42.30423" lon="0.60866">
        <ele>1185.33</ele>
        <time>2021-08-01T16:35:34Z</time>
      </trkpt>
      <trkpt lat="42.30437" lon="0.60854">
        <ele>1186.51</ele>
        <time>2021-08-01T16:35:37Z</time>
      </trkpt>
      <trkpt lat="42.30451" lon="0.60842">
        <ele>1188.16</ele>
        <time>2021-08-01T16:35:40Z</time>
      </trkpt>
      <trkpt lat="42.30475" lon="0.60829">
        <ele>1190.41</ele>
        <time>2021-08-01T16:35:44Z</time>
      </trkpt>
      <trkpt lat="42.30516" lon="0.60818">
        <ele>1194.06</ele>
        <time>2021-08-01T16:35:50Z</time>
      </trkpt>
      <trkpt lat="42.30539" lon="0.60805">
        <ele>1196.99</ele>
        <time>2021-08-01T16:35:55Z</time>
      </trkpt>
      <trkpt lat="42.30566" lon="0.60773">
        <ele>1200.18</ele>
        <time>2021-08-01T16:36:05Z</time>
      </trkpt>
      <trkpt lat="42.30571" lon="0.60771">
        <ele>1200.27</ele>
        <time>2021-08-01T16:36:06Z</time>
      </trkpt>
      <trkpt lat="42.30615" lon="0.60753">
        <ele>1203.13</ele>
        <time>2021-08-01T16:36:20Z</time>
      </trkpt>
      <trkpt lat="42.30646" lon="0.60778">
        <ele>1203.1</ele>
        <time>2021-08-01T16:36:29Z</time>
      </trkpt>
      <trkpt lat="42.30656" lon="0.60797">
        <ele>1201.37</ele>
        <time>2021-08-01T16:36:33Z</time>
      </trkpt>
      <trkpt lat="42.30662" lon="0.6082">
        <ele>1197.57</ele>
        <time>2021-08-01T16:36:39Z</time>
      </trkpt>
      <trkpt lat="42.30667" lon="0.60842">
        <ele>1194.97</ele>
        <time>2021-08-01T16:36:48Z</time>
      </trkpt>
      <trkpt lat="42.3068" lon="0.60885">
        <ele>1191.83</ele>
        <time>2021-08-01T16:36:58Z</time>
      </trkpt>
      <trkpt lat="42.30699" lon="0.60913">
        <ele>1189.84</ele>
        <time>2021-08-01T16:37:08Z</time>
      </trkpt>
      <trkpt lat="42.3071" lon="0.6092">
        <ele>1189.17</ele>
        <time>2021-08-01T16:37:16Z</time>
      </trkpt>
      <trkpt lat="42.30746" lon="0.60953">
        <ele>1189.13</ele>
        <time>2021-08-01T16:37:27Z</time>
      </trkpt>
      <trkpt lat="42.30769" lon="0.60973">
        <ele>1188.08</ele>
        <time>2021-08-01T16:37:37Z</time>
      </trkpt>
      <trkpt lat="42.30769" lon="0.60973">
        <ele>1186.72</ele>
        <time>2021-08-01T16:37:59Z</time>
      </trkpt>
      <trkpt lat="42.30769" lon="0.60973">
        <ele>1186.74</ele>
        <time>2021-08-01T16:38:00Z</time>
      </trkpt>
      <trkpt lat="42.30764" lon="0.60967">
        <ele>1186.71</ele>
        <time>2021-08-01T16:38:06Z</time>
      </trkpt>
      <trkpt lat="42.30772" lon="0.60968">
        <ele>1187.05</ele>
        <time>2021-08-01T16:38:11Z</time>
      </trkpt>
      <trkpt lat="42.30772" lon="0.60977">
        <ele>1186.77</ele>
        <time>2021-08-01T16:38:22Z</time>
      </trkpt>
      <trkpt lat="42.30772" lon="0.60977">
        <ele>1186.49</ele>
        <time>2021-08-01T16:40:45Z</time>
      </trkpt>
      <trkpt lat="42.30772" lon="0.60978">
        <ele>1186.49</ele>
        <time>2021-08-01T16:40:46Z</time>
      </trkpt>
      <trkpt lat="42.30788" lon="0.61001">
        <ele>1186.91</ele>
        <time>2021-08-01T16:40:53Z</time>
      </trkpt>
      <trkpt lat="42.30802" lon="0.61034">
        <ele>1186.17</ele>
        <time>2021-08-01T16:41:01Z</time>
      </trkpt>
      <trkpt lat="42.30802" lon="0.61053">
        <ele>1186.33</ele>
        <time>2021-08-01T16:41:05Z</time>
      </trkpt>
      <trkpt lat="42.30797" lon="0.61107">
        <ele>1187.6</ele>
        <time>2021-08-01T16:41:19Z</time>
      </trkpt>
      <trkpt lat="42.30794" lon="0.61184">
        <ele>1189.51</ele>
        <time>2021-08-01T16:41:34Z</time>
      </trkpt>
      <trkpt lat="42.30787" lon="0.61211">
        <ele>1190.68</ele>
        <time>2021-08-01T16:41:39Z</time>
      </trkpt>
      <trkpt lat="42.30768" lon="0.61252">
        <ele>1192.77</ele>
        <time>2021-08-01T16:41:47Z</time>
      </trkpt>
      <trkpt lat="42.30767" lon="0.61281">
        <ele>1193.45</ele>
        <time>2021-08-01T16:41:51Z</time>
      </trkpt>
      <trkpt lat="42.30775" lon="0.61334">
        <ele>1195.42</ele>
        <time>2021-08-01T16:41:57Z</time>
      </trkpt>
      <trkpt lat="42.30788" lon="0.61358">
        <ele>1198.01</ele>
        <time>2021-08-01T16:42:05Z</time>
      </trkpt>
      <trkpt lat="42.30813" lon="0.61343">
        <ele>1200.96</ele>
        <time>2021-08-01T16:42:13Z</time>
      </trkpt>
      <trkpt lat="42.30832" lon="0.61347">
        <ele>1201.85</ele>
        <time>2021-08-01T16:42:17Z</time>
      </trkpt>
      <trkpt lat="42.30877" lon="0.61372">
        <ele>1202.6</ele>
        <time>2021-08-01T16:42:25Z</time>
      </trkpt>
      <trkpt lat="42.30912" lon="0.61422">
        <ele>1202.3</ele>
        <time>2021-08-01T16:42:33Z</time>
      </trkpt>
      <trkpt lat="42.30918" lon="0.61449">
        <ele>1202.31</ele>
        <time>2021-08-01T16:42:40Z</time>
      </trkpt>
      <trkpt lat="42.30918" lon="0.61463">
        <ele>1202.26</ele>
        <time>2021-08-01T16:43:10Z</time>
      </trkpt>
      <trkpt lat="42.30919" lon="0.61463">
        <ele>1202.51</ele>
        <time>2021-08-01T16:43:33Z</time>
      </trkpt>
      <trkpt lat="42.30918" lon="0.61461">
        <ele>1201.95</ele>
        <time>2021-08-01T16:44:44Z</time>
      </trkpt>
      <trkpt lat="42.30919" lon="0.61462">
        <ele>1201.93</ele>
        <time>2021-08-01T16:44:47Z</time>
      </trkpt>
      <trkpt lat="42.30937" lon="0.61464">
        <ele>1201.65</ele>
        <time>2021-08-01T16:44:53Z</time>
      </trkpt>
      <trkpt lat="42.30978" lon="0.61488">
        <ele>1198.91</ele>
        <time>2021-08-01T16:45:05Z</time>
      </trkpt>
      <trkpt lat="42.31005" lon="0.6151">
        <ele>1196.17</ele>
        <time>2021-08-01T16:45:15Z</time>
      </trkpt>
      <trkpt lat="42.31023" lon="0.61533">
        <ele>1194.75</ele>
        <time>2021-08-01T16:45:19Z</time>
      </trkpt>
      <trkpt lat="42.31044" lon="0.61569">
        <ele>1192.27</ele>
        <time>2021-08-01T16:45:27Z</time>
      </trkpt>
      <trkpt lat="42.31072" lon="0.61613">
        <ele>1189.38</ele>
        <time>2021-08-01T16:45:36Z</time>
      </trkpt>
      <trkpt lat="42.31109" lon="0.61622">
        <ele>1186.69</ele>
        <time>2021-08-01T16:45:48Z</time>
      </trkpt>
      <trkpt lat="42.31112" lon="0.61621">
        <ele>1186.45</ele>
        <time>2021-08-01T16:45:49Z</time>
      </trkpt>
      <trkpt lat="42.31134" lon="0.61616">
        <ele>1185.09</ele>
        <time>2021-08-01T16:45:54Z</time>
      </trkpt>
      <trkpt lat="42.31157" lon="0.61607">
        <ele>1182.46</ele>
        <time>2021-08-01T16:45:59Z</time>
      </trkpt>
      <trkpt lat="42.31173" lon="0.61603">
        <ele>1180.17</ele>
        <time>2021-08-01T16:46:03Z</time>
      </trkpt>
      <trkpt lat="42.31174" lon="0.61593">
        <ele>1177.94</ele>
        <time>2021-08-01T16:46:07Z</time>
      </trkpt>
      <trkpt lat="42.31152" lon="0.6159">
        <ele>1173.89</ele>
        <time>2021-08-01T16:46:15Z</time>
      </trkpt>
      <trkpt lat="42.31139" lon="0.61588">
        <ele>1170.54</ele>
        <time>2021-08-01T16:46:20Z</time>
      </trkpt>
      <trkpt lat="42.31137" lon="0.61587">
        <ele>1169.88</ele>
        <time>2021-08-01T16:46:21Z</time>
      </trkpt>
      <trkpt lat="42.31148" lon="0.61575">
        <ele>1166.06</ele>
        <time>2021-08-01T16:46:27Z</time>
      </trkpt>
      <trkpt lat="42.31146" lon="0.61566">
        <ele>1162.68</ele>
        <time>2021-08-01T16:46:32Z</time>
      </trkpt>
      <trkpt lat="42.3113" lon="0.61567">
        <ele>1160.45</ele>
        <time>2021-08-01T16:46:36Z</time>
      </trkpt>
      <trkpt lat="42.3112" lon="0.61569">
        <ele>1159.36</ele>
        <time>2021-08-01T16:46:38Z</time>
      </trkpt>
      <trkpt lat="42.31119" lon="0.61548">
        <ele>1155.56</ele>
        <time>2021-08-01T16:46:44Z</time>
      </trkpt>
      <trkpt lat="42.31126" lon="0.61539">
        <ele>1154.02</ele>
        <time>2021-08-01T16:46:46Z</time>
      </trkpt>
      <trkpt lat="42.31148" lon="0.61526">
        <ele>1150.25</ele>
        <time>2021-08-01T16:46:51Z</time>
      </trkpt>
      <trkpt lat="42.3117" lon="0.61515">
        <ele>1145.23</ele>
        <time>2021-08-01T16:46:56Z</time>
      </trkpt>
      <trkpt lat="42.31181" lon="0.61523">
        <ele>1142.11</ele>
        <time>2021-08-01T16:46:59Z</time>
      </trkpt>
      <trkpt lat="42.31187" lon="0.6153">
        <ele>1140.12</ele>
        <time>2021-08-01T16:47:01Z</time>
      </trkpt>
      <trkpt lat="42.31193" lon="0.61538">
        <ele>1138.21</ele>
        <time>2021-08-01T16:47:03Z</time>
      </trkpt>
      <trkpt lat="42.31214" lon="0.61548">
        <ele>1134.89</ele>
        <time>2021-08-01T16:47:08Z</time>
      </trkpt>
      <trkpt lat="42.31222" lon="0.61546">
        <ele>1133.68</ele>
        <time>2021-08-01T16:47:10Z</time>
      </trkpt>
      <trkpt lat="42.31255" lon="0.6153">
        <ele>1129.7</ele>
        <time>2021-08-01T16:47:17Z</time>
      </trkpt>
      <trkpt lat="42.31277" lon="0.615">
        <ele>1127.31</ele>
        <time>2021-08-01T16:47:24Z</time>
      </trkpt>
      <trkpt lat="42.31261" lon="0.61487">
        <ele>1124.59</ele>
        <time>2021-08-01T16:47:29Z</time>
      </trkpt>
      <trkpt lat="42.31255" lon="0.61487">
        <ele>1123.14</ele>
        <time>2021-08-01T16:47:31Z</time>
      </trkpt>
      <trkpt lat="42.31207" lon="0.61481">
        <ele>1119.12</ele>
        <time>2021-08-01T16:47:40Z</time>
      </trkpt>
      <trkpt lat="42.31204" lon="0.61475">
        <ele>1118.71</ele>
        <time>2021-08-01T16:47:41Z</time>
      </trkpt>
      <trkpt lat="42.31193" lon="0.61449">
        <ele>1116.94</ele>
        <time>2021-08-01T16:47:45Z</time>
      </trkpt>
      <trkpt lat="42.31184" lon="0.6141">
        <ele>1113.27</ele>
        <time>2021-08-01T16:47:51Z</time>
      </trkpt>
      <trkpt lat="42.31185" lon="0.61403">
        <ele>1112.58</ele>
        <time>2021-08-01T16:47:52Z</time>
      </trkpt>
      <trkpt lat="42.31189" lon="0.61389">
        <ele>1111.11</ele>
        <time>2021-08-01T16:47:54Z</time>
      </trkpt>
      <trkpt lat="42.31195" lon="0.61346">
        <ele>1106.83</ele>
        <time>2021-08-01T16:47:59Z</time>
      </trkpt>
      <trkpt lat="42.31201" lon="0.61317">
        <ele>1103.13</ele>
        <time>2021-08-01T16:48:03Z</time>
      </trkpt>
      <trkpt lat="42.31208" lon="0.61302">
        <ele>1099.49</ele>
        <time>2021-08-01T16:48:07Z</time>
      </trkpt>
      <trkpt lat="42.31215" lon="0.61288">
        <ele>1095.93</ele>
        <time>2021-08-01T16:48:11Z</time>
      </trkpt>
      <trkpt lat="42.31226" lon="0.61273">
        <ele>1092.62</ele>
        <time>2021-08-01T16:48:17Z</time>
      </trkpt>
      <trkpt lat="42.31228" lon="0.61272">
        <ele>1089.6</ele>
        <time>2021-08-01T16:48:28Z</time>
      </trkpt>
      <trkpt lat="42.31227" lon="0.61272">
        <ele>1089.56</ele>
        <time>2021-08-01T16:48:50Z</time>
      </trkpt>
      <trkpt lat="42.31227" lon="0.61272">
        <ele>1089.47</ele>
        <time>2021-08-01T16:54:17Z</time>
      </trkpt>
      <trkpt lat="42.31227" lon="0.61273">
        <ele>1089.47</ele>
        <time>2021-08-01T16:55:05Z</time>
      </trkpt>
      <trkpt lat="42.31226" lon="0.61273">
        <ele>1089.47</ele>
        <time>2021-08-01T16:55:56Z</time>
      </trkpt>
      <trkpt lat="42.31227" lon="0.61273">
        <ele>1089.47</ele>
        <time>2021-08-01T16:56:30Z</time>
      </trkpt>
      <trkpt lat="42.31228" lon="0.61272">
        <ele>1089.47</ele>
        <time>2021-08-01T16:57:08Z</time>
      </trkpt>
      <trkpt lat="42.31227" lon="0.61273">
        <ele>1089.47</ele>
        <time>2021-08-01T16:57:43Z</time>
      </trkpt>
      <trkpt lat="42.31228" lon="0.61273">
        <ele>1089.47</ele>
        <time>2021-08-01T16:58:18Z</time>
      </trkpt>
      <trkpt lat="42.31228" lon="0.61274">
        <ele>1089.47</ele>
        <time>2021-08-01T16:58:55Z</time>
      </trkpt>
      <trkpt lat="42.31228" lon="0.61274">
        <ele>1089.47</ele>
        <time>2021-08-01T16:59:33Z</time>
      </trkpt>
      <trkpt lat="42.31227" lon="0.61275">
        <ele>1089.47</ele>
        <time>2021-08-01T17:00:33Z</time>
      </trkpt>
      <trkpt lat="42.31227" lon="0.61275">
        <ele>1089.47</ele>
        <time>2021-08-01T17:01:09Z</time>
      </trkpt>
      <trkpt lat="42.31226" lon="0.61275">
        <ele>1089.47</ele>
        <time>2021-08-01T17:02:34Z</time>
      </trkpt>
      <trkpt lat="42.31226" lon="0.61276">
        <ele>1089.47</ele>
        <time>2021-08-01T17:03:44Z</time>
      </trkpt>
      <trkpt lat="42.31227" lon="0.61277">
        <ele>1089.47</ele>
        <time>2021-08-01T17:04:38Z</time>
      </trkpt>
      <trkpt lat="42.31239" lon="0.6127">
        <ele>1089.42</ele>
        <time>2021-08-01T17:05:42Z</time>
      </trkpt>
      <trkpt lat="42.31252" lon="0.61264">
        <ele>1088.69</ele>
        <time>2021-08-01T17:05:54Z</time>
      </trkpt>
      <trkpt lat="42.31251" lon="0.61264">
        <ele>1089.07</ele>
        <time>2021-08-01T17:06:03Z</time>
      </trkpt>
      <trkpt lat="42.31246" lon="0.61263">
        <ele>1089.03</ele>
        <time>2021-08-01T17:06:06Z</time>
      </trkpt>
      <trkpt lat="42.31244" lon="0.61265">
        <ele>1088.66</ele>
        <time>2021-08-01T17:06:09Z</time>
      </trkpt>
      <trkpt lat="42.31235" lon="0.61244">
        <ele>1088.39</ele>
        <time>2021-08-01T17:06:14Z</time>
      </trkpt>
      <trkpt lat="42.31222" lon="0.61205">
        <ele>1087.3</ele>
        <time>2021-08-01T17:06:19Z</time>
      </trkpt>
      <trkpt lat="42.3122" lon="0.61167">
        <ele>1083.85</ele>
        <time>2021-08-01T17:06:25Z</time>
      </trkpt>
      <trkpt lat="42.31247" lon="0.61151">
        <ele>1080.49</ele>
        <time>2021-08-01T17:06:31Z</time>
      </trkpt>
      <trkpt lat="42.31254" lon="0.6113">
        <ele>1077.27</ele>
        <time>2021-08-01T17:06:35Z</time>
      </trkpt>
      <trkpt lat="42.31252" lon="0.61124">
        <ele>1076.39</ele>
        <time>2021-08-01T17:06:36Z</time>
      </trkpt>
      <trkpt lat="42.31247" lon="0.61111">
        <ele>1074.57</ele>
        <time>2021-08-01T17:06:38Z</time>
      </trkpt>
      <trkpt lat="42.31216" lon="0.61074">
        <ele>1070.48</ele>
        <time>2021-08-01T17:06:44Z</time>
      </trkpt>
      <trkpt lat="42.31206" lon="0.6104">
        <ele>1066.75</ele>
        <time>2021-08-01T17:06:51Z</time>
      </trkpt>
      <trkpt lat="42.31214" lon="0.61038">
        <ele>1065.39</ele>
        <time>2021-08-01T17:06:53Z</time>
      </trkpt>
      <trkpt lat="42.31241" lon="0.61032">
        <ele>1061.06</ele>
        <time>2021-08-01T17:06:59Z</time>
      </trkpt>
      <trkpt lat="42.31251" lon="0.61014">
        <ele>1056.92</ele>
        <time>2021-08-01T17:07:04Z</time>
      </trkpt>
      <trkpt lat="42.31252" lon="0.60977">
        <ele>1055.2</ele>
        <time>2021-08-01T17:07:10Z</time>
      </trkpt>
      <trkpt lat="42.31266" lon="0.60943">
        <ele>1055.17</ele>
        <time>2021-08-01T17:07:15Z</time>
      </trkpt>
      <trkpt lat="42.31272" lon="0.60874">
        <ele>1051.35</ele>
        <time>2021-08-01T17:07:24Z</time>
      </trkpt>
      <trkpt lat="42.31287" lon="0.60854">
        <ele>1047.3</ele>
        <time>2021-08-01T17:07:28Z</time>
      </trkpt>
      <trkpt lat="42.31305" lon="0.6085">
        <ele>1044.14</ele>
        <time>2021-08-01T17:07:31Z</time>
      </trkpt>
      <trkpt lat="42.31321" lon="0.60856">
        <ele>1041.01</ele>
        <time>2021-08-01T17:07:34Z</time>
      </trkpt>
      <trkpt lat="42.31332" lon="0.60855">
        <ele>1037.88</ele>
        <time>2021-08-01T17:07:37Z</time>
      </trkpt>
      <trkpt lat="42.31333" lon="0.60841">
        <ele>1034.96</ele>
        <time>2021-08-01T17:07:40Z</time>
      </trkpt>
      <trkpt lat="42.31321" lon="0.60799">
        <ele>1031.41</ele>
        <time>2021-08-01T17:07:46Z</time>
      </trkpt>
      <trkpt lat="42.31318" lon="0.60747">
        <ele>1027.68</ele>
        <time>2021-08-01T17:07:52Z</time>
      </trkpt>
      <trkpt lat="42.31328" lon="0.6072">
        <ele>1025.6</ele>
        <time>2021-08-01T17:07:56Z</time>
      </trkpt>
      <trkpt lat="42.31338" lon="0.60705">
        <ele>1024.32</ele>
        <time>2021-08-01T17:07:59Z</time>
      </trkpt>
      <trkpt lat="42.31341" lon="0.60679">
        <ele>1023.24</ele>
        <time>2021-08-01T17:08:02Z</time>
      </trkpt>
      <trkpt lat="42.31343" lon="0.60631">
        <ele>1021.48</ele>
        <time>2021-08-01T17:08:07Z</time>
      </trkpt>
      <trkpt lat="42.31341" lon="0.606">
        <ele>1019.75</ele>
        <time>2021-08-01T17:08:10Z</time>
      </trkpt>
      <trkpt lat="42.3132" lon="0.60576">
        <ele>1015.37</ele>
        <time>2021-08-01T17:08:16Z</time>
      </trkpt>
      <trkpt lat="42.31312" lon="0.60586">
        <ele>1013.87</ele>
        <time>2021-08-01T17:08:18Z</time>
      </trkpt>
      <trkpt lat="42.31278" lon="0.60581">
        <ele>1008.99</ele>
        <time>2021-08-01T17:08:25Z</time>
      </trkpt>
      <trkpt lat="42.31283" lon="0.60549">
        <ele>1006.14</ele>
        <time>2021-08-01T17:08:29Z</time>
      </trkpt>
      <trkpt lat="42.31295" lon="0.60527">
        <ele>1001.87</ele>
        <time>2021-08-01T17:08:34Z</time>
      </trkpt>
      <trkpt lat="42.31309" lon="0.60504">
        <ele>998.52</ele>
        <time>2021-08-01T17:08:38Z</time>
      </trkpt>
      <trkpt lat="42.31334" lon="0.60465">
        <ele>995.34</ele>
        <time>2021-08-01T17:08:44Z</time>
      </trkpt>
      <trkpt lat="42.31383" lon="0.60407">
        <ele>993.19</ele>
        <time>2021-08-01T17:08:53Z</time>
      </trkpt>
      <trkpt lat="42.31428" lon="0.60345">
        <ele>992.27</ele>
        <time>2021-08-01T17:09:04Z</time>
      </trkpt>
      <trkpt lat="42.31443" lon="0.60309">
        <ele>991.12</ele>
        <time>2021-08-01T17:09:08Z</time>
      </trkpt>
      <trkpt lat="42.31447" lon="0.60289">
        <ele>990.06</ele>
        <time>2021-08-01T17:09:10Z</time>
      </trkpt>
      <trkpt lat="42.31434" lon="0.60279">
        <ele>986.67</ele>
        <time>2021-08-01T17:09:16Z</time>
      </trkpt>
      <trkpt lat="42.31385" lon="0.60313">
        <ele>983.24</ele>
        <time>2021-08-01T17:09:24Z</time>
      </trkpt>
      <trkpt lat="42.31334" lon="0.603">
        <ele>980.79</ele>
        <time>2021-08-01T17:09:32Z</time>
      </trkpt>
      <trkpt lat="42.31322" lon="0.60282">
        <ele>978.68</ele>
        <time>2021-08-01T17:09:35Z</time>
      </trkpt>
      <trkpt lat="42.31309" lon="0.60268">
        <ele>975.59</ele>
        <time>2021-08-01T17:09:38Z</time>
      </trkpt>
      <trkpt lat="42.31311" lon="0.60236">
        <ele>972.15</ele>
        <time>2021-08-01T17:09:42Z</time>
      </trkpt>
      <trkpt lat="42.31314" lon="0.60231">
        <ele>971.24</ele>
        <time>2021-08-01T17:09:43Z</time>
      </trkpt>
      <trkpt lat="42.31308" lon="0.60207">
        <ele>965.92</ele>
        <time>2021-08-01T17:09:49Z</time>
      </trkpt>
      <trkpt lat="42.31303" lon="0.60208">
        <ele>965.11</ele>
        <time>2021-08-01T17:09:50Z</time>
      </trkpt>
      <trkpt lat="42.31287" lon="0.60183">
        <ele>959.99</ele>
        <time>2021-08-01T17:09:57Z</time>
      </trkpt>
      <trkpt lat="42.31292" lon="0.60147">
        <ele>957.59</ele>
        <time>2021-08-01T17:10:01Z</time>
      </trkpt>
      <trkpt lat="42.3128" lon="0.60099">
        <ele>953.9</ele>
        <time>2021-08-01T17:10:06Z</time>
      </trkpt>
      <trkpt lat="42.3129" lon="0.60058">
        <ele>949.57</ele>
        <time>2021-08-01T17:10:11Z</time>
      </trkpt>
      <trkpt lat="42.31309" lon="0.60041">
        <ele>946.95</ele>
        <time>2021-08-01T17:10:14Z</time>
      </trkpt>
      <trkpt lat="42.31333" lon="0.60013">
        <ele>943.98</ele>
        <time>2021-08-01T17:10:19Z</time>
      </trkpt>
      <trkpt lat="42.31352" lon="0.5999">
        <ele>940.43</ele>
        <time>2021-08-01T17:10:26Z</time>
      </trkpt>
      <trkpt lat="42.31363" lon="0.59982">
        <ele>939.03</ele>
        <time>2021-08-01T17:10:29Z</time>
      </trkpt>
      <trkpt lat="42.31371" lon="0.59977">
        <ele>938.22</ele>
        <time>2021-08-01T17:10:31Z</time>
      </trkpt>
      <trkpt lat="42.31402" lon="0.59966">
        <ele>934.53</ele>
        <time>2021-08-01T17:10:40Z</time>
      </trkpt>
      <trkpt lat="42.31436" lon="0.59942">
        <ele>931.48</ele>
        <time>2021-08-01T17:10:48Z</time>
      </trkpt>
      <trkpt lat="42.31454" lon="0.59931">
        <ele>930.23</ele>
        <time>2021-08-01T17:10:52Z</time>
      </trkpt>
      <trkpt lat="42.31491" lon="0.59894">
        <ele>930.68</ele>
        <time>2021-08-01T17:11:00Z</time>
      </trkpt>
      <trkpt lat="42.31556" lon="0.59845">
        <ele>932.63</ele>
        <time>2021-08-01T17:11:09Z</time>
      </trkpt>
      <trkpt lat="42.31569" lon="0.5981">
        <ele>932.54</ele>
        <time>2021-08-01T17:11:15Z</time>
      </trkpt>
      <trkpt lat="42.31569" lon="0.59795">
        <ele>932</ele>
        <time>2021-08-01T17:11:17Z</time>
      </trkpt>
      <trkpt lat="42.31564" lon="0.59736">
        <ele>929.9</ele>
        <time>2021-08-01T17:11:23Z</time>
      </trkpt>
      <trkpt lat="42.31564" lon="0.59696">
        <ele>927.76</ele>
        <time>2021-08-01T17:11:27Z</time>
      </trkpt>
      <trkpt lat="42.31563" lon="0.5967">
        <ele>925.53</ele>
        <time>2021-08-01T17:11:31Z</time>
      </trkpt>
      <trkpt lat="42.3156" lon="0.59648">
        <ele>922.54</ele>
        <time>2021-08-01T17:11:37Z</time>
      </trkpt>
      <trkpt lat="42.31576" lon="0.5965">
        <ele>920.17</ele>
        <time>2021-08-01T17:11:43Z</time>
      </trkpt>
      <trkpt lat="42.3159" lon="0.59666">
        <ele>916.12</ele>
        <time>2021-08-01T17:11:50Z</time>
      </trkpt>
      <trkpt lat="42.31598" lon="0.59663">
        <ele>913.34</ele>
        <time>2021-08-01T17:11:57Z</time>
      </trkpt>
      <trkpt lat="42.31599" lon="0.5966">
        <ele>912.98</ele>
        <time>2021-08-01T17:11:58Z</time>
      </trkpt>
      <trkpt lat="42.31599" lon="0.59655">
        <ele>912.65</ele>
        <time>2021-08-01T17:11:59Z</time>
      </trkpt>
      <trkpt lat="42.31599" lon="0.59648">
        <ele>912.4</ele>
        <time>2021-08-01T17:12:00Z</time>
      </trkpt>
      <trkpt lat="42.31598" lon="0.59638">
        <ele>912.17</ele>
        <time>2021-08-01T17:12:01Z</time>
      </trkpt>
      <trkpt lat="42.3159" lon="0.59528">
        <ele>908.86</ele>
        <time>2021-08-01T17:12:09Z</time>
      </trkpt>
      <trkpt lat="42.3159" lon="0.59499">
        <ele>907.62</ele>
        <time>2021-08-01T17:12:11Z</time>
      </trkpt>
      <trkpt lat="42.31561" lon="0.59424">
        <ele>903.51</ele>
        <time>2021-08-01T17:12:17Z</time>
      </trkpt>
      <trkpt lat="42.31541" lon="0.59391">
        <ele>900.44</ele>
        <time>2021-08-01T17:12:20Z</time>
      </trkpt>
      <trkpt lat="42.31512" lon="0.59371">
        <ele>895.5</ele>
        <time>2021-08-01T17:12:24Z</time>
      </trkpt>
      <trkpt lat="42.31502" lon="0.59372">
        <ele>894.32</ele>
        <time>2021-08-01T17:12:25Z</time>
      </trkpt>
      <trkpt lat="42.31461" lon="0.59384">
        <ele>888.61</ele>
        <time>2021-08-01T17:12:30Z</time>
      </trkpt>
      <trkpt lat="42.31446" lon="0.5937">
        <ele>884.86</ele>
        <time>2021-08-01T17:12:34Z</time>
      </trkpt>
      <trkpt lat="42.31466" lon="0.59338">
        <ele>882.58</ele>
        <time>2021-08-01T17:12:38Z</time>
      </trkpt>
      <trkpt lat="42.31491" lon="0.59254">
        <ele>883.07</ele>
        <time>2021-08-01T17:12:45Z</time>
      </trkpt>
      <trkpt lat="42.3148" lon="0.59102">
        <ele>878.52</ele>
        <time>2021-08-01T17:12:54Z</time>
      </trkpt>
      <trkpt lat="42.31476" lon="0.59061">
        <ele>874.85</ele>
        <time>2021-08-01T17:12:57Z</time>
      </trkpt>
      <trkpt lat="42.31488" lon="0.59039">
        <ele>869.33</ele>
        <time>2021-08-01T17:13:01Z</time>
      </trkpt>
      <trkpt lat="42.315" lon="0.59054">
        <ele>865.34</ele>
        <time>2021-08-01T17:13:04Z</time>
      </trkpt>
      <trkpt lat="42.31529" lon="0.59071">
        <ele>859.87</ele>
        <time>2021-08-01T17:13:10Z</time>
      </trkpt>
      <trkpt lat="42.31548" lon="0.59057">
        <ele>858.7</ele>
        <time>2021-08-01T17:13:12Z</time>
      </trkpt>
      <trkpt lat="42.31584" lon="0.59006">
        <ele>856.29</ele>
        <time>2021-08-01T17:13:16Z</time>
      </trkpt>
      <trkpt lat="42.31603" lon="0.58958">
        <ele>854.82</ele>
        <time>2021-08-01T17:13:19Z</time>
      </trkpt>
      <trkpt lat="42.31609" lon="0.5888">
        <ele>851.88</ele>
        <time>2021-08-01T17:13:25Z</time>
      </trkpt>
      <trkpt lat="42.31631" lon="0.58873">
        <ele>851.2</ele>
        <time>2021-08-01T17:13:29Z</time>
      </trkpt>
      <trkpt lat="42.31662" lon="0.58881">
        <ele>852.39</ele>
        <time>2021-08-01T17:13:35Z</time>
      </trkpt>
      <trkpt lat="42.31666" lon="0.58873">
        <ele>852.95</ele>
        <time>2021-08-01T17:13:36Z</time>
      </trkpt>
      <trkpt lat="42.31715" lon="0.58796">
        <ele>855.63</ele>
        <time>2021-08-01T17:13:43Z</time>
      </trkpt>
      <trkpt lat="42.31708" lon="0.58729">
        <ele>857.73</ele>
        <time>2021-08-01T17:13:48Z</time>
      </trkpt>
      <trkpt lat="42.31686" lon="0.58662">
        <ele>857.67</ele>
        <time>2021-08-01T17:13:53Z</time>
      </trkpt>
      <trkpt lat="42.3169" lon="0.58594">
        <ele>853.85</ele>
        <time>2021-08-01T17:14:01Z</time>
      </trkpt>
      <trkpt lat="42.31722" lon="0.58533">
        <ele>849.66</ele>
        <time>2021-08-01T17:14:09Z</time>
      </trkpt>
      <trkpt lat="42.3174" lon="0.585">
        <ele>848.03</ele>
        <time>2021-08-01T17:14:12Z</time>
      </trkpt>
      <trkpt lat="42.3178" lon="0.58482">
        <ele>844.44</ele>
        <time>2021-08-01T17:14:17Z</time>
      </trkpt>
      <trkpt lat="42.31788" lon="0.58489">
        <ele>843.48</ele>
        <time>2021-08-01T17:14:18Z</time>
      </trkpt>
      <trkpt lat="42.31814" lon="0.58506">
        <ele>840.8</ele>
        <time>2021-08-01T17:14:21Z</time>
      </trkpt>
      <trkpt lat="42.31857" lon="0.58491">
        <ele>836.71</ele>
        <time>2021-08-01T17:14:27Z</time>
      </trkpt>
      <trkpt lat="42.31872" lon="0.58456">
        <ele>835.06</ele>
        <time>2021-08-01T17:14:30Z</time>
      </trkpt>
      <trkpt lat="42.31891" lon="0.58389">
        <ele>831.3</ele>
        <time>2021-08-01T17:14:35Z</time>
      </trkpt>
      <trkpt lat="42.31885" lon="0.58357">
        <ele>828.5</ele>
        <time>2021-08-01T17:14:38Z</time>
      </trkpt>
      <trkpt lat="42.3188" lon="0.58324">
        <ele>825.46</ele>
        <time>2021-08-01T17:14:41Z</time>
      </trkpt>
      <trkpt lat="42.31898" lon="0.58308">
        <ele>820.55</ele>
        <time>2021-08-01T17:14:46Z</time>
      </trkpt>
      <trkpt lat="42.31904" lon="0.58313">
        <ele>819.61</ele>
        <time>2021-08-01T17:14:47Z</time>
      </trkpt>
      <trkpt lat="42.31922" lon="0.58332">
        <ele>817.32</ele>
        <time>2021-08-01T17:14:50Z</time>
      </trkpt>
      <trkpt lat="42.31933" lon="0.58376">
        <ele>813.25</ele>
        <time>2021-08-01T17:14:55Z</time>
      </trkpt>
      <trkpt lat="42.31933" lon="0.58385">
        <ele>812.4</ele>
        <time>2021-08-01T17:14:56Z</time>
      </trkpt>
      <trkpt lat="42.31946" lon="0.58398">
        <ele>807.09</ele>
        <time>2021-08-01T17:15:02Z</time>
      </trkpt>
      <trkpt lat="42.31954" lon="0.5838">
        <ele>805.34</ele>
        <time>2021-08-01T17:15:04Z</time>
      </trkpt>
      <trkpt lat="42.31963" lon="0.58359">
        <ele>803.75</ele>
        <time>2021-08-01T17:15:06Z</time>
      </trkpt>
      <trkpt lat="42.31986" lon="0.58355">
        <ele>799.22</ele>
        <time>2021-08-01T17:15:11Z</time>
      </trkpt>
      <trkpt lat="42.31988" lon="0.58365">
        <ele>798.2</ele>
        <time>2021-08-01T17:15:12Z</time>
      </trkpt>
      <trkpt lat="42.31982" lon="0.58432">
        <ele>794.54</ele>
        <time>2021-08-01T17:15:17Z</time>
      </trkpt>
      <trkpt lat="42.31969" lon="0.58474">
        <ele>792.25</ele>
        <time>2021-08-01T17:15:21Z</time>
      </trkpt>
      <trkpt lat="42.31974" lon="0.58509">
        <ele>790.04</ele>
        <time>2021-08-01T17:15:26Z</time>
      </trkpt>
      <trkpt lat="42.31985" lon="0.58524">
        <ele>789.15</ele>
        <time>2021-08-01T17:15:29Z</time>
      </trkpt>
      <trkpt lat="42.32027" lon="0.58514">
        <ele>789.51</ele>
        <time>2021-08-01T17:15:36Z</time>
      </trkpt>
      <trkpt lat="42.32047" lon="0.58464">
        <ele>791.37</ele>
        <time>2021-08-01T17:15:40Z</time>
      </trkpt>
      <trkpt lat="42.3206" lon="0.58419">
        <ele>793.26</ele>
        <time>2021-08-01T17:15:43Z</time>
      </trkpt>
      <trkpt lat="42.32069" lon="0.58395">
        <ele>793.97</ele>
        <time>2021-08-01T17:15:45Z</time>
      </trkpt>
      <trkpt lat="42.32121" lon="0.58366">
        <ele>795.52</ele>
        <time>2021-08-01T17:15:51Z</time>
      </trkpt>
      <trkpt lat="42.32141" lon="0.58369">
        <ele>798.99</ele>
        <time>2021-08-01T17:15:57Z</time>
      </trkpt>
      <trkpt lat="42.32144" lon="0.58369">
        <ele>799.58</ele>
        <time>2021-08-01T17:15:58Z</time>
      </trkpt>
      <trkpt lat="42.32153" lon="0.58355">
        <ele>801.3</ele>
        <time>2021-08-01T17:16:01Z</time>
      </trkpt>
      <trkpt lat="42.32154" lon="0.58346">
        <ele>801.77</ele>
        <time>2021-08-01T17:16:02Z</time>
      </trkpt>
      <trkpt lat="42.32155" lon="0.58335">
        <ele>802.19</ele>
        <time>2021-08-01T17:16:03Z</time>
      </trkpt>
      <trkpt lat="42.32188" lon="0.58246">
        <ele>804.8</ele>
        <time>2021-08-01T17:16:10Z</time>
      </trkpt>
      <trkpt lat="42.32191" lon="0.58232">
        <ele>805.01</ele>
        <time>2021-08-01T17:16:11Z</time>
      </trkpt>
      <trkpt lat="42.32192" lon="0.58216">
        <ele>805.18</ele>
        <time>2021-08-01T17:16:12Z</time>
      </trkpt>
      <trkpt lat="42.32192" lon="0.58202">
        <ele>805.29</ele>
        <time>2021-08-01T17:16:13Z</time>
      </trkpt>
      <trkpt lat="42.32206" lon="0.5813">
        <ele>805.04</ele>
        <time>2021-08-01T17:16:19Z</time>
      </trkpt>
      <trkpt lat="42.32215" lon="0.5801">
        <ele>801.7</ele>
        <time>2021-08-01T17:16:26Z</time>
      </trkpt>
      <trkpt lat="42.32218" lon="0.57992">
        <ele>800.79</ele>
        <time>2021-08-01T17:16:27Z</time>
      </trkpt>
      <trkpt lat="42.32231" lon="0.57937">
        <ele>797.72</ele>
        <time>2021-08-01T17:16:30Z</time>
      </trkpt>
      <trkpt lat="42.32236" lon="0.57903">
        <ele>795.47</ele>
        <time>2021-08-01T17:16:32Z</time>
      </trkpt>
      <trkpt lat="42.32253" lon="0.57861">
        <ele>791.15</ele>
        <time>2021-08-01T17:16:36Z</time>
      </trkpt>
      <trkpt lat="42.32261" lon="0.57833">
        <ele>787.33</ele>
        <time>2021-08-01T17:16:40Z</time>
      </trkpt>
      <trkpt lat="42.32246" lon="0.578">
        <ele>784.29</ele>
        <time>2021-08-01T17:16:44Z</time>
      </trkpt>
      <trkpt lat="42.32258" lon="0.57776">
        <ele>782.38</ele>
        <time>2021-08-01T17:16:47Z</time>
      </trkpt>
      <trkpt lat="42.32292" lon="0.57701">
        <ele>778.57</ele>
        <time>2021-08-01T17:16:54Z</time>
      </trkpt>
      <trkpt lat="42.3229" lon="0.57688">
        <ele>777.69</ele>
        <time>2021-08-01T17:16:55Z</time>
      </trkpt>
      <trkpt lat="42.32293" lon="0.57621">
        <ele>772.27</ele>
        <time>2021-08-01T17:17:00Z</time>
      </trkpt>
      <trkpt lat="42.32295" lon="0.57583">
        <ele>768.83</ele>
        <time>2021-08-01T17:17:03Z</time>
      </trkpt>
      <trkpt lat="42.32277" lon="0.57552">
        <ele>765.49</ele>
        <time>2021-08-01T17:17:06Z</time>
      </trkpt>
      <trkpt lat="42.32264" lon="0.57532">
        <ele>761.92</ele>
        <time>2021-08-01T17:17:09Z</time>
      </trkpt>
      <trkpt lat="42.32271" lon="0.57508">
        <ele>758.57</ele>
        <time>2021-08-01T17:17:12Z</time>
      </trkpt>
      <trkpt lat="42.32291" lon="0.57489">
        <ele>755.75</ele>
        <time>2021-08-01T17:17:15Z</time>
      </trkpt>
      <trkpt lat="42.32307" lon="0.57477">
        <ele>754.09</ele>
        <time>2021-08-01T17:17:17Z</time>
      </trkpt>
      <trkpt lat="42.32344" lon="0.57466">
        <ele>750.69</ele>
        <time>2021-08-01T17:17:24Z</time>
      </trkpt>
      <trkpt lat="42.32347" lon="0.57465">
        <ele>749.17</ele>
        <time>2021-08-01T17:17:28Z</time>
      </trkpt>
      <trkpt lat="42.32324" lon="0.57461">
        <ele>748.17</ele>
        <time>2021-08-01T17:17:35Z</time>
      </trkpt>
      <trkpt lat="42.32304" lon="0.57474">
        <ele>748.07</ele>
        <time>2021-08-01T17:17:37Z</time>
      </trkpt>
      <trkpt lat="42.32215" lon="0.57471">
        <ele>747.59</ele>
        <time>2021-08-01T17:17:43Z</time>
      </trkpt>
      <trkpt lat="42.32173" lon="0.57448">
        <ele>747.22</ele>
        <time>2021-08-01T17:17:46Z</time>
      </trkpt>
      <trkpt lat="42.32112" lon="0.57393">
        <ele>743.93</ele>
        <time>2021-08-01T17:17:54Z</time>
      </trkpt>
      <trkpt lat="42.32045" lon="0.57317">
        <ele>741.32</ele>
        <time>2021-08-01T17:18:04Z</time>
      </trkpt>
      <trkpt lat="42.32001" lon="0.57273">
        <ele>739.37</ele>
        <time>2021-08-01T17:18:12Z</time>
      </trkpt>
      <trkpt lat="42.31986" lon="0.57272">
        <ele>737.26</ele>
        <time>2021-08-01T17:18:24Z</time>
      </trkpt>
      <trkpt lat="42.31966" lon="0.57274">
        <ele>737.03</ele>
        <time>2021-08-01T17:18:32Z</time>
      </trkpt>
      <trkpt lat="42.31906" lon="0.57265">
        <ele>737.82</ele>
        <time>2021-08-01T17:18:41Z</time>
      </trkpt>
      <trkpt lat="42.31846" lon="0.57241">
        <ele>738.58</ele>
        <time>2021-08-01T17:18:47Z</time>
      </trkpt>
      <trkpt lat="42.31804" lon="0.57185">
        <ele>739.59</ele>
        <time>2021-08-01T17:18:51Z</time>
      </trkpt>
      <trkpt lat="42.31761" lon="0.57112">
        <ele>740.34</ele>
        <time>2021-08-01T17:18:55Z</time>
      </trkpt>
      <trkpt lat="42.31731" lon="0.57021">
        <ele>739.92</ele>
        <time>2021-08-01T17:18:59Z</time>
      </trkpt>
      <trkpt lat="42.31703" lon="0.56799">
        <ele>738.38</ele>
        <time>2021-08-01T17:19:09Z</time>
      </trkpt>
      <trkpt lat="42.31686" lon="0.56689">
        <ele>737.52</ele>
        <time>2021-08-01T17:19:15Z</time>
      </trkpt>
      <trkpt lat="42.3161" lon="0.56529">
        <ele>736.56</ele>
        <time>2021-08-01T17:19:24Z</time>
      </trkpt>
      <trkpt lat="42.31501" lon="0.56322">
        <ele>733.53</ele>
        <time>2021-08-01T17:19:36Z</time>
      </trkpt>
      <trkpt lat="42.31418" lon="0.56162">
        <ele>730.19</ele>
        <time>2021-08-01T17:19:45Z</time>
      </trkpt>
      <trkpt lat="42.31346" lon="0.56024">
        <ele>726.83</ele>
        <time>2021-08-01T17:19:53Z</time>
      </trkpt>
      <trkpt lat="42.31296" lon="0.55882">
        <ele>723.51</ele>
        <time>2021-08-01T17:20:01Z</time>
      </trkpt>
      <trkpt lat="42.31263" lon="0.55694">
        <ele>720.32</ele>
        <time>2021-08-01T17:20:11Z</time>
      </trkpt>
      <trkpt lat="42.31205" lon="0.55507">
        <ele>717.39</ele>
        <time>2021-08-01T17:20:22Z</time>
      </trkpt>
      <trkpt lat="42.3114" lon="0.55343">
        <ele>715.4</ele>
        <time>2021-08-01T17:20:31Z</time>
      </trkpt>
      <trkpt lat="42.31057" lon="0.55209">
        <ele>713.13</ele>
        <time>2021-08-01T17:20:40Z</time>
      </trkpt>
      <trkpt lat="42.30962" lon="0.55032">
        <ele>710.83</ele>
        <time>2021-08-01T17:20:51Z</time>
      </trkpt>
      <trkpt lat="42.30871" lon="0.54846">
        <ele>711.5</ele>
        <time>2021-08-01T17:21:02Z</time>
      </trkpt>
      <trkpt lat="42.30796" lon="0.54693">
        <ele>713.59</ele>
        <time>2021-08-01T17:21:12Z</time>
      </trkpt>
      <trkpt lat="42.30741" lon="0.54642">
        <ele>715.35</ele>
        <time>2021-08-01T17:21:18Z</time>
      </trkpt>
      <trkpt lat="42.30734" lon="0.54633">
        <ele>715.49</ele>
        <time>2021-08-01T17:21:19Z</time>
      </trkpt>
      <trkpt lat="42.30726" lon="0.54624">
        <ele>715.62</ele>
        <time>2021-08-01T17:21:20Z</time>
      </trkpt>
      <trkpt lat="42.3072" lon="0.54614">
        <ele>715.74</ele>
        <time>2021-08-01T17:21:21Z</time>
      </trkpt>
      <trkpt lat="42.30715" lon="0.54605">
        <ele>715.86</ele>
        <time>2021-08-01T17:21:22Z</time>
      </trkpt>
      <trkpt lat="42.30677" lon="0.54542">
        <ele>716.39</ele>
        <time>2021-08-01T17:21:28Z</time>
      </trkpt>
      <trkpt lat="42.30646" lon="0.54513">
        <ele>716.82</ele>
        <time>2021-08-01T17:21:31Z</time>
      </trkpt>
      <trkpt lat="42.30612" lon="0.54458">
        <ele>717.06</ele>
        <time>2021-08-01T17:21:35Z</time>
      </trkpt>
      <trkpt lat="42.3054" lon="0.54269">
        <ele>716.13</ele>
        <time>2021-08-01T17:21:46Z</time>
      </trkpt>
      <trkpt lat="42.30465" lon="0.54196">
        <ele>713.18</ele>
        <time>2021-08-01T17:21:53Z</time>
      </trkpt>
      <trkpt lat="42.30378" lon="0.54175">
        <ele>708.86</ele>
        <time>2021-08-01T17:21:59Z</time>
      </trkpt>
      <trkpt lat="42.30323" lon="0.54163">
        <ele>705.55</ele>
        <time>2021-08-01T17:22:03Z</time>
      </trkpt>
      <trkpt lat="42.30283" lon="0.54154">
        <ele>701.47</ele>
        <time>2021-08-01T17:22:07Z</time>
      </trkpt>
      <trkpt lat="42.30251" lon="0.54146">
        <ele>698.43</ele>
        <time>2021-08-01T17:22:10Z</time>
      </trkpt>
      <trkpt lat="42.30209" lon="0.54137">
        <ele>695.05</ele>
        <time>2021-08-01T17:22:14Z</time>
      </trkpt>
      <trkpt lat="42.3013" lon="0.54111">
        <ele>692.91</ele>
        <time>2021-08-01T17:22:21Z</time>
      </trkpt>
      <trkpt lat="42.30019" lon="0.54011">
        <ele>695.08</ele>
        <time>2021-08-01T17:22:30Z</time>
      </trkpt>
      <trkpt lat="42.29993" lon="0.53988">
        <ele>695.92</ele>
        <time>2021-08-01T17:22:32Z</time>
      </trkpt>
      <trkpt lat="42.2988" lon="0.53946">
        <ele>699.99</ele>
        <time>2021-08-01T17:22:39Z</time>
      </trkpt>
      <trkpt lat="42.29811" lon="0.53925">
        <ele>703.84</ele>
        <time>2021-08-01T17:22:43Z</time>
      </trkpt>
      <trkpt lat="42.29775" lon="0.5392">
        <ele>706.07</ele>
        <time>2021-08-01T17:22:45Z</time>
      </trkpt>
      <trkpt lat="42.29701" lon="0.5393">
        <ele>711.06</ele>
        <time>2021-08-01T17:22:49Z</time>
      </trkpt>
      <trkpt lat="42.29665" lon="0.53937">
        <ele>714.3</ele>
        <time>2021-08-01T17:22:51Z</time>
      </trkpt>
      <trkpt lat="42.29581" lon="0.53941">
        <ele>717.86</ele>
        <time>2021-08-01T17:22:56Z</time>
      </trkpt>
      <trkpt lat="42.29532" lon="0.53925">
        <ele>719.12</ele>
        <time>2021-08-01T17:22:59Z</time>
      </trkpt>
      <trkpt lat="42.29499" lon="0.53904">
        <ele>719.36</ele>
        <time>2021-08-01T17:23:01Z</time>
      </trkpt>
      <trkpt lat="42.29343" lon="0.53771">
        <ele>716.15</ele>
        <time>2021-08-01T17:23:10Z</time>
      </trkpt>
      <trkpt lat="42.29234" lon="0.53744">
        <ele>712.01</ele>
        <time>2021-08-01T17:23:15Z</time>
      </trkpt>
      <trkpt lat="42.29149" lon="0.53729">
        <ele>708.33</ele>
        <time>2021-08-01T17:23:19Z</time>
      </trkpt>
      <trkpt lat="42.29091" lon="0.53719">
        <ele>706.9</ele>
        <time>2021-08-01T17:23:22Z</time>
      </trkpt>
      <trkpt lat="42.29006" lon="0.53702">
        <ele>707.43</ele>
        <time>2021-08-01T17:23:27Z</time>
      </trkpt>
      <trkpt lat="42.28928" lon="0.53628">
        <ele>710.43</ele>
        <time>2021-08-01T17:23:33Z</time>
      </trkpt>
      <trkpt lat="42.28912" lon="0.53596">
        <ele>711.67</ele>
        <time>2021-08-01T17:23:35Z</time>
      </trkpt>
      <trkpt lat="42.28891" lon="0.53538">
        <ele>714.17</ele>
        <time>2021-08-01T17:23:39Z</time>
      </trkpt>
      <trkpt lat="42.28879" lon="0.53499">
        <ele>715.23</ele>
        <time>2021-08-01T17:23:42Z</time>
      </trkpt>
      <trkpt lat="42.28857" lon="0.53464">
        <ele>715.6</ele>
        <time>2021-08-01T17:23:46Z</time>
      </trkpt>
    </trkseg>
  </trk>
</gpx>